Time;durP1;ratioP1;P1;durP2;ratioP2;P2;SDS_P1;SDS_P2;PMS_P1;PMS_P2;Temp;Humidity;BMP_temperature;BMP_pressure;BME280_temperature;BME280_humidity;BME280_pressure;Samples;Min_cycle;Max_cycle;Signal;HPM_P1;HPM_P2
2020/12/19 00:03:02;;;;;;;5.35;2.05;;;7.20;99.90;;;;;;10401565;28;20037;-53
2020/12/19 00:08:23;;;;;;;6.15;2.25;;;7.20;99.90;;;;;;10400850;28;20042;-53
2020/12/19 00:13:44;;;;;;;5.95;1.98;;;7.20;99.90;;;;;;10404607;28;20041;-53
2020/12/19 00:19:05;;;;;;;7.40;2.45;;;7.10;99.90;;;;;;10397353;28;20128;-53
2020/12/19 00:24:26;;;;;;;6.78;3.13;;;7.10;99.90;;;;;;10399735;28;20072;-50
2020/12/19 00:29:47;;;;;;;5.13;2.25;;;7.10;99.90;;;;;;10404755;28;20033;-50
2020/12/19 00:35:09;;;;;;;5.35;2.85;;;7.10;99.90;;;;;;10428542;28;20076;-50
2020/12/19 00:40:30;;;;;;;7.25;2.60;;;7.10;99.90;;;;;;10451657;28;20033;-50
2020/12/19 00:45:51;;;;;;;8.35;2.78;;;7.10;99.90;;;;;;10440949;28;20099;-53
2020/12/19 00:51:23;;;;;;;5.82;2.00;;;7.10;99.90;;;;;;10451584;28;20044;-53
2020/12/19 00:56:44;;;;;;;7.28;3.28;;;7.10;99.90;;;;;;10456169;28;20036;-50
2020/12/19 01:02:04;;;;;;;8.57;2.17;;;7.10;99.90;;;;;;10454494;28;20068;-51
2020/12/19 01:07:25;;;;;;;4.88;2.20;;;7.10;99.90;;;;;;10457632;28;20074;-50
2020/12/19 01:12:46;;;;;;;8.38;3.17;;;7.20;99.90;;;;;;10450544;28;20045;-50
2020/12/19 01:18:07;;;;;;;5.85;1.98;;;7.20;99.90;;;;;;10444741;28;20048;-50
2020/12/19 01:23:28;;;;;;;4.45;2.55;;;7.10;99.90;;;;;;10441465;28;20044;-50
2020/12/19 01:28:50;;;;;;;6.15;2.13;;;7.10;99.90;;;;;;10447905;28;20586;-50
2020/12/19 01:34:11;;;;;;;10.90;2.42;;;7.10;99.90;;;;;;10446064;28;20049;-51
2020/12/19 01:39:32;;;;;;;7.82;2.13;;;7.10;99.90;;;;;;10457758;28;20045;-50
2020/12/19 01:44:53;;;;;;;6.35;2.70;;;7.00;99.90;;;;;;10455223;28;20044;-50
2020/12/19 01:50:14;;;;;;;9.00;2.25;;;7.10;99.90;;;;;;10449477;28;20083;-50
2020/12/19 01:55:35;;;;;;;7.85;2.72;;;7.10;99.90;;;;;;10434967;28;20476;-50
2020/12/19 02:00:57;;;;;;;3.92;2.10;;;7.00;99.90;;;;;;10435708;28;20033;-50
2020/12/19 02:06:19;;;;;;;6.50;1.77;;;7.00;99.90;;;;;;10445377;28;20037;-50
2020/12/19 02:11:42;;;;;;;6.03;2.22;;;6.90;99.90;;;;;;10437167;28;20124;-50
2020/12/19 02:17:10;;;;;;;5.03;1.58;;;6.90;99.90;;;;;;10449788;28;20037;-50
2020/12/19 02:22:31;;;;;;;7.20;3.00;;;6.90;99.90;;;;;;10438622;28;20032;-50
2020/12/19 02:27:53;;;;;;;9.55;2.85;;;6.90;99.90;;;;;;10444589;28;20029;-50
2020/12/19 02:33:14;;;;;;;5.93;2.28;;;6.90;99.90;;;;;;10450089;28;20055;-50
2020/12/19 02:38:35;;;;;;;6.03;2.80;;;6.90;99.90;;;;;;10438861;28;20033;-50
2020/12/19 02:43:57;;;;;;;9.27;3.13;;;6.90;99.90;;;;;;10445448;28;20032;-50
2020/12/19 02:49:18;;;;;;;7.53;3.38;;;6.90;99.90;;;;;;10434447;28;20028;-50
2020/12/19 02:54:39;;;;;;;6.47;2.45;;;6.90;99.90;;;;;;10436582;28;20736;-50
2020/12/19 03:00:00;;;;;;;6.45;2.40;;;6.80;99.90;;;;;;10441233;28;20041;-55
2020/12/19 03:05:20;;;;;;;11.25;2.67;;;6.90;99.90;;;;;;10451532;28;20306;-50
2020/12/19 03:10:42;;;;;;;9.95;2.63;;;6.90;99.90;;;;;;10450511;28;20127;-50
2020/12/19 03:16:03;;;;;;;4.90;2.58;;;6.90;99.90;;;;;;10439785;28;20079;-50
2020/12/19 03:21:24;;;;;;;4.78;2.28;;;6.90;99.90;;;;;;10423680;28;20037;-49
2020/12/19 03:26:45;;;;;;;5.13;2.22;;;6.90;99.90;;;;;;10445033;28;20052;-50
2020/12/19 03:32:06;;;;;;;5.45;2.33;;;6.90;99.90;;;;;;10443090;28;20060;-50
2020/12/19 03:37:27;;;;;;;6.72;1.45;;;7.00;99.90;;;;;;10446590;28;20125;-50
2020/12/19 03:42:47;;;;;;;3.83;1.65;;;6.90;99.90;;;;;;10440210;28;20043;-50
2020/12/19 03:48:09;;;;;;;5.50;2.17;;;6.90;99.90;;;;;;10443219;28;20544;-51
2020/12/19 03:53:30;;;;;;;5.03;2.28;;;7.00;99.90;;;;;;10449045;28;20098;-50
2020/12/19 03:58:50;;;;;;;9.95;2.03;;;7.00;99.90;;;;;;10436792;28;20094;-50
2020/12/19 04:04:11;;;;;;;8.55;2.75;;;7.10;99.90;;;;;;10439387;28;20127;-50
2020/12/19 04:09:32;;;;;;;6.20;3.08;;;7.10;99.90;;;;;;10445975;28;20076;-50
2020/12/19 04:14:53;;;;;;;5.80;2.83;;;7.10;99.90;;;;;;10434884;28;20102;-50
2020/12/19 04:20:14;;;;;;;7.07;2.30;;;7.10;99.90;;;;;;10432796;28;20036;-50
2020/12/19 04:25:35;;;;;;;6.35;2.30;;;7.10;99.90;;;;;;10447222;28;20078;-50
2020/12/19 04:30:56;;;;;;;6.20;1.67;;;7.10;99.90;;;;;;10442721;28;20055;-50
2020/12/19 04:36:17;;;;;;;7.90;2.72;;;7.10;99.90;;;;;;10428091;28;20041;-50
2020/12/19 04:41:38;;;;;;;6.80;2.20;;;7.00;99.90;;;;;;10428100;28;20040;-50
2020/12/19 04:46:59;;;;;;;6.22;2.60;;;6.90;99.90;;;;;;10425325;28;20051;-50
2020/12/19 04:52:20;;;;;;;7.72;2.65;;;7.00;99.90;;;;;;10426106;28;20068;-50
2020/12/19 04:57:44;;;;;;;8.85;2.40;;;6.90;99.90;;;;;;10435904;28;20041;-50
2020/12/19 05:03:05;;;;;;;5.20;2.08;;;6.90;99.90;;;;;;10438521;28;20141;-50
2020/12/19 05:08:26;;;;;;;5.15;1.52;;;6.90;99.90;;;;;;10437078;28;20656;-50
2020/12/19 05:13:47;;;;;;;8.45;2.97;;;6.90;99.90;;;;;;10437057;28;20068;-50
2020/12/19 05:19:10;;;;;;;7.63;2.65;;;6.90;99.90;;;;;;10426523;28;20071;-50
2020/12/19 05:24:34;;;;;;;7.80;2.95;;;6.90;99.90;;;;;;10452623;28;20064;-50
2020/12/19 05:29:56;;;;;;;8.48;2.88;;;6.90;99.90;;;;;;10449772;28;23149;-50
2020/12/19 05:35:21;;;;;;;4.75;2.35;;;6.90;99.90;;;;;;10444652;28;20049;-50
2020/12/19 05:40:44;;;;;;;7.38;2.53;;;6.90;99.90;;;;;;10449795;28;20033;-50
2020/12/19 05:46:05;;;;;;;6.90;2.33;;;6.90;99.90;;;;;;10450951;28;20045;-50
2020/12/19 05:51:28;;;;;;;5.28;2.22;;;6.90;99.90;;;;;;10450154;28;20043;-50
2020/12/19 05:56:50;;;;;;;7.22;2.42;;;6.90;99.90;;;;;;10420015;28;20483;-50
2020/12/19 06:02:11;;;;;;;9.18;2.80;;;6.90;99.90;;;;;;10444955;28;20037;-50
2020/12/19 06:07:40;;;;;;;6.68;2.85;;;6.90;99.90;;;;;;10450561;28;20044;-49
2020/12/19 06:13:03;;;;;;;;;;;6.90;99.90;;;;;;10449486;28;20041;-50
2020/12/19 06:18:55;;;;;;;7.97;2.67;;;6.90;99.90;;;;;;10449569;28;20606;-50
2020/12/19 06:24:42;;;;;;;4.65;1.75;;;7.00;99.90;;;;;;10427588;28;20065;-50
2020/12/19 06:30:03;;;;;;;14.02;2.95;;;7.00;99.90;;;;;;10428668;28;20051;-50
2020/12/19 06:35:28;;;;;;;7.05;2.80;;;6.90;99.90;;;;;;10446437;28;20080;-50
2020/12/19 06:40:49;;;;;;;8.45;3.47;;;6.90;99.90;;;;;;10437388;28;20154;-50
2020/12/19 06:46:30;;;;;;;7.70;2.47;;;6.90;99.90;;;;;;10434266;28;20079;-50
2020/12/19 06:52:11;;;;;;;9.02;2.42;;;6.90;99.90;;;;;;10443875;28;20043;-51
2020/12/19 06:57:32;;;;;;;9.43;3.00;;;6.90;99.90;;;;;;10419037;28;20044;-50
2020/12/19 07:02:55;;;;;;;6.97;2.65;;;6.90;99.90;;;;;;10445356;28;20021;-51
2020/12/19 07:08:19;;;;;;;7.63;2.72;;;7.00;99.90;;;;;;10444023;28;20397;-51
2020/12/19 07:13:53;;;;;;;6.80;1.92;;;7.10;99.90;;;;;;10438114;28;20356;-50
2020/12/19 07:19:16;;;;;;;4.82;1.90;;;7.40;99.90;;;;;;10431938;28;20055;-50
2020/12/19 07:24:37;;;;;;;5.88;2.53;;;7.50;99.90;;;;;;10417671;28;20041;-50
2020/12/19 07:29:59;;;;;;;9.52;2.45;;;7.40;99.90;;;;;;10441453;28;20036;-50
2020/12/19 07:35:20;;;;;;;7.93;3.00;;;7.40;99.90;;;;;;10447501;28;20056;-50
2020/12/19 07:40:41;;;;;;;5.25;2.00;;;7.40;99.90;;;;;;10450243;28;20037;-50
2020/12/19 07:46:02;;;;;;;7.10;2.17;;;7.30;99.90;;;;;;10441053;28;20143;-53
2020/12/19 07:51:23;;;;;;;15.13;3.20;;;7.40;99.90;;;;;;10436503;28;20041;-53
2020/12/19 07:56:45;;;;;;;4.82;2.10;;;7.40;99.90;;;;;;10427595;28;20039;-53
2020/12/19 08:02:07;;;;;;;9.18;2.95;;;7.60;99.90;;;;;;10435011;28;20523;-50
2020/12/19 08:07:29;;;;;;;6.75;2.10;;;7.70;99.90;;;;;;10439619;28;20032;-50
2020/12/19 08:12:50;;;;;;;6.88;2.75;;;7.60;99.90;;;;;;10441652;28;20422;-50
2020/12/19 08:18:13;;;;;;;9.23;4.00;;;7.60;99.90;;;;;;10434148;28;20033;-50
2020/12/19 08:23:34;;;;;;;9.38;3.15;;;7.60;99.90;;;;;;10448130;28;20075;-52
2020/12/19 08:29:06;;;;;;;5.65;2.25;;;7.70;99.90;;;;;;10430446;28;20539;-52
2020/12/19 08:34:27;;;;;;;5.47;1.83;;;7.80;99.90;;;;;;10439163;28;20136;-53
2020/12/19 08:40:06;;;;;;;4.72;1.60;;;7.90;99.90;;;;;;10440995;28;20060;-53
2020/12/19 08:45:35;;;;;;;6.65;2.97;;;8.00;99.90;;;;;;10433378;28;20099;-52
2020/12/19 08:50:56;;;;;;;;;;;8.10;99.90;;;;;;10422041;28;20029;-53
2020/12/19 08:56:18;;;;;;;6.75;2.25;;;8.30;99.90;;;;;;10432540;28;19941;-53
2020/12/19 09:01:40;;;;;;;6.20;2.05;;;8.40;99.90;;;;;;10445496;28;20064;-53
2020/12/19 09:07:01;;;;;;;5.95;2.05;;;8.40;99.90;;;;;;10448025;28;20033;-53
2020/12/19 09:12:23;;;;;;;6.13;2.63;;;8.60;99.90;;;;;;10433704;28;20041;-53
2020/12/19 09:17:44;;;;;;;6.47;2.55;;;8.70;99.90;;;;;;10418076;28;20131;-53
2020/12/19 09:23:05;;;;;;;5.45;2.55;;;8.80;99.90;;;;;;10451028;28;20025;-53
2020/12/19 09:28:28;;;;;;;4.65;1.90;;;8.80;99.90;;;;;;10443606;28;20396;-53
2020/12/19 09:33:49;;;;;;;4.70;1.95;;;8.90;99.90;;;;;;10448787;28;20401;-53
2020/12/19 09:39:10;;;;;;;4.35;2.10;;;9.00;99.90;;;;;;10451371;28;20041;-53
2020/12/19 09:44:31;;;;;;;8.10;2.35;;;9.10;99.90;;;;;;10443369;28;20037;-52
2020/12/19 09:49:52;;;;;;;6.30;1.60;;;9.00;99.90;;;;;;10433362;28;20037;-53
2020/12/19 09:55:13;;;;;;;5.40;2.33;;;8.90;99.90;;;;;;10447393;28;20614;-52
2020/12/19 10:00:34;;;;;;;9.02;1.83;;;8.90;99.90;;;;;;10445854;28;20424;-53
2020/12/19 10:05:55;;;;;;;3.95;1.73;;;9.10;99.90;;;;;;10448008;28;20040;-53
2020/12/19 10:11:23;;;;;;;7.93;2.03;;;9.20;99.90;;;;;;10442036;28;20041;-53
2020/12/19 10:16:43;;;;;;;4.30;1.80;;;9.30;99.90;;;;;;10443938;28;20037;-53
2020/12/19 10:22:05;;;;;;;4.78;1.83;;;9.50;99.90;;;;;;10442946;28;20143;-53
2020/12/19 10:27:25;;;;;;;4.07;1.48;;;9.60;99.90;;;;;;10441648;28;20099;-51
2020/12/19 10:32:46;;;;;;;2.92;1.45;;;9.70;99.90;;;;;;10436466;28;20045;-50
2020/12/19 10:38:07;;;;;;;3.58;1.63;;;9.80;99.90;;;;;;10433132;28;20040;-51
2020/12/19 10:43:28;;;;;;;4.68;3.47;;;10.00;99.90;;;;;;10432833;28;20111;-50
2020/12/19 10:48:50;;;;;;;5.10;2.13;;;10.10;99.90;;;;;;10440356;28;20033;-51
2020/12/19 10:54:10;;;;;;;5.65;1.13;;;10.20;99.90;;;;;;10436040;28;20090;-51
2020/12/19 10:59:31;;;;;;;5.05;2.03;;;10.20;99.90;;;;;;10439212;28;20441;-50
2020/12/19 11:04:52;;;;;;;2.80;0.95;;;10.30;99.90;;;;;;10440377;28;20438;-50
2020/12/19 11:10:13;;;;;;;3.28;1.85;;;10.50;99.90;;;;;;10441747;28;20045;-51
2020/12/19 11:15:38;;;;;;;6.85;3.05;;;10.60;99.90;;;;;;10439639;28;20049;-51
2020/12/19 11:20:59;;;;;;;2.80;1.10;;;10.70;99.90;;;;;;10446815;28;20160;-50
2020/12/19 11:26:21;;;;;;;6.07;2.45;;;10.70;99.90;;;;;;10435672;28;20036;-50
2020/12/19 11:31:42;;;;;;;2.15;1.00;;;10.80;99.90;;;;;;10443728;28;20106;-50
2020/12/19 11:37:03;;;;;;;4.70;1.75;;;10.80;99.90;;;;;;10436756;28;20040;-50
2020/12/19 11:42:24;;;;;;;3.70;1.23;;;10.80;99.90;;;;;;10443818;28;20087;-51
2020/12/19 11:47:45;;;;;;;2.92;1.60;;;10.80;99.90;;;;;;10411706;28;20558;-50
2020/12/19 11:53:06;;;;;;;3.55;1.10;;;10.90;99.90;;;;;;10425893;28;20041;-50
2020/12/19 11:58:27;;;;;;;4.90;1.85;;;10.80;99.90;;;;;;10431634;28;20044;-51
2020/12/19 12:03:48;;;;;;;2.45;1.23;;;10.90;99.90;;;;;;10434306;28;20040;-50
2020/12/19 12:09:09;;;;;;;4.78;1.35;;;10.90;99.90;;;;;;10419836;28;20056;-50
2020/12/19 12:14:30;;;;;;;1.70;0.98;;;11.00;99.90;;;;;;10415994;28;20032;-50
2020/12/19 12:19:51;;;;;;;2.13;1.05;;;11.10;99.90;;;;;;10429621;28;20046;-50
2020/12/19 12:25:12;;;;;;;1.17;0.63;;;11.20;99.90;;;;;;10423553;28;20489;-51
2020/12/19 12:30:33;;;;;;;2.35;0.90;;;11.30;99.90;;;;;;10432534;28;20045;-50
2020/12/19 12:35:54;;;;;;;3.08;0.85;;;11.30;99.90;;;;;;10431279;28;20033;-51
2020/12/19 12:41:16;;;;;;;2.40;0.80;;;11.40;99.90;;;;;;10429939;28;20029;-50
2020/12/19 12:46:37;;;;;;;2.33;1.15;;;11.30;99.90;;;;;;10430203;28;20037;-50
2020/12/19 12:51:58;;;;;;;2.50;1.02;;;11.40;99.90;;;;;;10428879;28;20037;-50
2020/12/19 12:57:19;;;;;;;1.40;0.65;;;11.30;99.90;;;;;;10426158;28;20550;-50
2020/12/19 13:02:40;;;;;;;3.15;1.02;;;11.20;99.90;;;;;;10422599;28;20646;-50
2020/12/19 13:08:01;;;;;;;2.67;1.15;;;11.20;99.90;;;;;;10425080;28;20037;-50
2020/12/19 13:13:22;;;;;;;3.53;1.33;;;11.20;99.90;;;;;;10433254;28;20253;-50
2020/12/19 13:18:43;;;;;;;4.10;1.38;;;11.10;99.90;;;;;;10390628;28;20390;-50
2020/12/19 13:24:04;;;;;;;3.03;1.08;;;11.00;99.90;;;;;;10431872;28;20036;-50
2020/12/19 13:29:26;;;;;;;3.22;0.85;;;10.90;99.90;;;;;;10412401;28;20056;-50
2020/12/19 13:34:47;;;;;;;3.38;0.93;;;10.80;99.90;;;;;;10430888;28;20087;-51
2020/12/19 13:40:08;;;;;;;2.75;1.33;;;10.70;99.90;;;;;;10427511;28;20134;-53
2020/12/19 13:45:29;;;;;;;2.60;1.25;;;10.70;99.90;;;;;;10427669;28;20092;-50
2020/12/19 13:50:49;;;;;;;2.78;1.13;;;10.60;99.90;;;;;;10430701;28;20049;-51
2020/12/19 13:56:19;;;;;;;4.22;1.38;;;10.50;99.90;;;;;;10424792;28;20032;-51
2020/12/19 14:01:40;;;;;;;2.40;0.73;;;10.60;99.90;;;;;;10407542;28;20060;-51
2020/12/19 14:07:01;;;;;;;4.05;1.23;;;10.50;99.90;;;;;;10429778;28;20043;-50
2020/12/19 14:12:22;;;;;;;3.53;1.27;;;10.60;99.90;;;;;;10437210;28;20041;-50
2020/12/19 14:17:43;;;;;;;3.28;0.90;;;10.70;99.90;;;;;;10405482;28;20044;-50
2020/12/19 14:23:04;;;;;;;3.10;0.70;;;10.80;99.90;;;;;;10421959;28;20071;-50
2020/12/19 14:28:25;;;;;;;3.90;1.20;;;10.80;99.90;;;;;;10422898;28;20037;-51
2020/12/19 14:33:47;;;;;;;2.30;1.13;;;10.90;99.90;;;;;;10421779;28;20408;-50
2020/12/19 14:39:08;;;;;;;2.28;1.38;;;10.90;99.90;;;;;;10427579;28;20640;-50
2020/12/19 14:44:29;;;;;;;1.92;0.70;;;10.90;99.90;;;;;;10421902;28;20124;-50
2020/12/19 14:49:50;;;;;;;1.75;0.80;;;10.80;99.90;;;;;;10420655;28;20124;-50
2020/12/19 14:55:15;;;;;;;4.35;1.08;;;10.80;99.90;;;;;;10426853;28;20374;-50
2020/12/19 15:00:35;;;;;;;3.38;0.90;;;10.70;99.90;;;;;;10420643;28;20047;-50
2020/12/19 15:05:56;;;;;;;4.85;1.08;;;10.60;99.90;;;;;;10421646;28;20045;-50
2020/12/19 15:11:19;;;;;;;2.55;1.17;;;10.50;99.90;;;;;;10421279;28;20029;-50
2020/12/19 15:16:39;;;;;;;2.80;1.00;;;10.50;99.90;;;;;;10436173;28;20059;-50
2020/12/19 15:22:00;;;;;;;2.53;0.90;;;10.50;99.90;;;;;;10426289;28;20036;-51
2020/12/19 15:27:21;;;;;;;2.70;1.10;;;10.50;99.90;;;;;;10426242;28;20043;-50
2020/12/19 15:32:42;;;;;;;3.67;2.20;;;10.50;99.90;;;;;;10425314;28;20078;-50
2020/12/19 15:38:03;;;;;;;2.25;1.10;;;10.60;99.90;;;;;;10424906;28;20406;-50
2020/12/19 15:43:24;;;;;;;3.20;0.90;;;10.60;99.90;;;;;;10412461;28;20105;-50
2020/12/19 15:48:45;;;;;;;4.53;0.98;;;10.60;99.90;;;;;;10417339;28;20045;-50
2020/12/19 15:54:06;;;;;;;3.95;1.63;;;10.50;99.90;;;;;;10432406;28;20397;-50
2020/12/19 15:59:28;;;;;;;3.80;1.05;;;10.50;99.90;;;;;;10423675;28;20041;-50
2020/12/19 16:04:49;;;;;;;3.78;1.50;;;10.50;99.90;;;;;;10428417;28;20094;-50
2020/12/19 16:10:10;;;;;;;3.50;1.40;;;10.50;99.90;;;;;;10432197;28;20051;-50
2020/12/19 16:15:31;;;;;;;3.72;1.55;;;10.50;99.90;;;;;;10424422;28;20055;-50
2020/12/19 16:20:52;;;;;;;3.05;1.42;;;10.40;99.90;;;;;;10415715;28;20044;-50
2020/12/19 16:26:13;;;;;;;4.03;1.08;;;10.40;99.90;;;;;;10414509;28;20077;-50
2020/12/19 16:31:35;;;;;;;3.97;1.23;;;10.30;99.90;;;;;;10422419;28;20566;-50
2020/12/19 16:36:56;;;;;;;2.65;1.35;;;10.20;99.90;;;;;;10428609;28;20531;-50
2020/12/19 16:42:17;;;;;;;3.58;1.33;;;10.20;99.90;;;;;;10402332;28;20462;-50
2020/12/19 16:47:38;;;;;;;2.60;1.20;;;10.20;99.90;;;;;;10425419;28;20037;-50
2020/12/19 16:52:59;;;;;;;4.05;2.20;;;10.20;99.90;;;;;;10428812;28;20037;-50
2020/12/19 16:58:20;;;;;;;2.13;0.70;;;10.30;99.90;;;;;;10422688;28;20029;-50
2020/12/19 17:03:41;;;;;;;3.92;2.10;;;10.40;99.90;;;;;;10430683;28;20037;-51
2020/12/19 17:09:03;;;;;;;4.50;1.38;;;10.50;99.90;;;;;;10424001;28;20543;-50
2020/12/19 17:14:24;;;;;;;3.65;2.25;;;10.50;99.90;;;;;;10416098;28;20543;-50
2020/12/19 17:19:45;;;;;;;5.72;1.90;;;10.40;99.90;;;;;;10435704;28;20265;-50
2020/12/19 17:25:06;;;;;;;5.03;1.75;;;10.40;99.90;;;;;;10433747;28;20914;-50
2020/12/19 17:30:27;;;;;;;4.15;1.63;;;10.30;99.90;;;;;;10436021;28;20045;-50
2020/12/19 17:35:49;;;;;;;3.58;1.63;;;10.30;99.90;;;;;;10425161;28;20235;-50
2020/12/19 17:41:11;;;;;;;5.05;1.15;;;10.20;99.90;;;;;;10438896;28;20420;-50
2020/12/19 17:46:32;;;;;;;5.10;1.95;;;10.20;99.90;;;;;;10439279;28;20045;-50
2020/12/19 17:51:54;;;;;;;4.45;1.70;;;10.20;99.90;;;;;;10435414;28;20037;-50
2020/12/19 17:57:15;;;;;;;4.43;1.30;;;10.10;99.90;;;;;;10428310;28;20042;-51
2020/12/19 18:02:38;;;;;;;3.63;1.58;;;10.00;99.90;;;;;;10426341;28;20448;-51
2020/12/19 18:07:59;;;;;;;4.05;1.25;;;10.00;99.90;;;;;;10438549;28;20480;-50
2020/12/19 18:13:20;;;;;;;4.60;1.33;;;9.90;99.90;;;;;;10431186;28;20824;-51
2020/12/19 18:18:43;;;;;;;3.38;1.60;;;9.90;99.90;;;;;;10421364;28;20738;-50
2020/12/19 18:24:03;;;;;;;23.60;2.67;;;9.90;99.90;;;;;;10423934;28;20071;-50
2020/12/19 18:29:27;;;;;;;3.90;1.60;;;9.90;99.90;;;;;;10435583;28;20040;-50
2020/12/19 18:34:48;;;;;;;5.18;1.75;;;10.00;99.90;;;;;;10426337;28;20414;-50
2020/12/19 18:40:09;;;;;;;3.95;1.40;;;9.90;99.90;;;;;;10436586;28;20044;-50
2020/12/19 18:45:30;;;;;;;3.45;1.45;;;10.00;99.90;;;;;;10436854;28;20049;-50
2020/12/19 18:50:51;;;;;;;3.72;1.23;;;9.90;99.90;;;;;;10435986;28;20044;-50
2020/12/19 18:56:12;;;;;;;2.67;1.65;;;9.90;99.90;;;;;;10434403;28;20496;-51
2020/12/19 19:01:33;;;;;;;1.73;0.90;;;9.90;99.90;;;;;;10428513;28;20456;-51
2020/12/19 19:06:54;;;;;;;3.58;1.20;;;9.80;99.90;;;;;;10430194;28;20097;-51
2020/12/19 19:12:15;;;;;;;3.45;1.80;;;9.90;99.90;;;;;;10433810;28;20098;-51
2020/12/19 19:17:37;;;;;;;3.03;1.70;;;9.90;99.90;;;;;;10434622;28;20071;-51
2020/12/19 19:22:58;;;;;;;3.40;1.30;;;9.80;99.90;;;;;;10418303;28;20102;-51
2020/12/19 19:28:19;;;;;;;6.35;2.28;;;9.70;99.90;;;;;;10435872;28;20403;-51
2020/12/19 19:33:41;;;;;;;4.07;1.20;;;9.60;99.90;;;;;;10431782;28;20053;-51
2020/12/19 19:39:03;;;;;;;4.50;1.67;;;9.70;99.90;;;;;;10435179;28;20087;-51
2020/12/19 19:44:24;;;;;;;3.15;1.52;;;9.60;99.90;;;;;;10420260;28;20412;-51
2020/12/19 19:49:45;;;;;;;5.05;1.73;;;9.50;99.90;;;;;;10417015;28;20120;-53
2020/12/19 19:55:06;;;;;;;3.40;1.40;;;9.50;99.90;;;;;;10437511;28;20049;-51
2020/12/19 20:00:27;;;;;;;3.83;1.98;;;9.50;99.90;;;;;;10422721;28;20040;-51
2020/12/19 20:05:48;;;;;;;4.32;2.45;;;9.40;99.90;;;;;;10426861;28;20045;-51
2020/12/19 20:11:09;;;;;;;5.15;1.58;;;9.30;99.90;;;;;;10435805;28;20040;-51
2020/12/19 20:16:33;;;;;;;3.80;1.83;;;9.30;99.90;;;;;;10432036;28;20044;-51
2020/12/19 20:21:54;;;;;;;6.68;1.63;;;9.30;99.90;;;;;;10422203;28;20132;-51
2020/12/19 20:27:15;;;;;;;6.72;2.30;;;9.20;99.90;;;;;;10428395;28;21587;-52
2020/12/19 20:32:37;;;;;;;3.70;2.20;;;9.20;99.90;;;;;;10413029;28;21380;-51
2020/12/19 20:37:58;;;;;;;3.95;1.60;;;9.10;99.90;;;;;;10425780;28;20436;-53
2020/12/19 20:43:19;;;;;;;6.32;2.08;;;9.20;99.90;;;;;;10434288;28;20145;-50
2020/12/19 20:48:40;;;;;;;5.03;1.83;;;9.20;99.90;;;;;;10424078;28;20292;-51
2020/12/19 20:54:01;;;;;;;4.13;1.80;;;9.20;99.90;;;;;;10435192;28;20052;-51
2020/12/19 20:59:22;;;;;;;4.88;1.75;;;9.10;99.90;;;;;;10420954;28;20045;-51
2020/12/19 21:04:43;;;;;;;5.63;2.03;;;9.10;99.90;;;;;;10437342;28;20126;-51
2020/12/19 21:10:04;;;;;;;5.82;1.70;;;9.10;99.90;;;;;;10434196;28;20040;-51
2020/12/19 21:15:25;;;;;;;3.40;1.58;;;9.10;99.90;;;;;;10428461;28;20052;-51
2020/12/19 21:20:46;;;;;;;5.90;2.13;;;9.10;99.90;;;;;;10415678;28;20619;-51
2020/12/19 21:26:07;;;;;;;4.03;2.08;;;9.10;99.90;;;;;;10425068;28;20127;-50
2020/12/19 21:31:28;;;;;;;4.70;1.65;;;9.00;99.90;;;;;;10438948;28;20049;-50
2020/12/19 21:36:49;;;;;;;7.25;2.15;;;9.00;99.90;;;;;;10429671;28;20661;-51
2020/12/19 21:42:10;;;;;;;5.88;1.70;;;8.90;99.90;;;;;;10435133;28;20051;-52
2020/12/19 21:47:31;;;;;;;4.03;1.55;;;8.80;99.90;;;;;;10435035;28;20414;-52
2020/12/19 21:52:53;;;;;;;3.33;1.70;;;8.80;99.90;;;;;;10434841;28;20049;-53
2020/12/19 21:58:14;;;;;;;3.55;1.67;;;8.80;99.90;;;;;;10434084;28;20172;-52
2020/12/19 22:03:35;;;;;;;2.40;1.30;;;8.70;99.90;;;;;;10431749;28;20040;-52
2020/12/19 22:08:56;;;;;;;2.58;1.25;;;8.70;99.90;;;;;;10424372;28;20988;-53
2020/12/19 22:14:17;;;;;;;4.70;1.90;;;8.60;99.90;;;;;;10434347;28;20136;-53
2020/12/19 22:19:38;;;;;;;9.57;2.35;;;8.60;99.90;;;;;;10440485;28;20112;-52
2020/12/19 22:24:59;;;;;;;5.30;1.83;;;8.60;99.90;;;;;;10440107;28;20037;-53
2020/12/19 22:30:20;;;;;;;7.53;2.63;;;8.60;99.90;;;;;;10442459;28;20068;-52
2020/12/19 22:35:41;;;;;;;3.95;1.90;;;8.50;99.90;;;;;;10426726;28;20044;-52
2020/12/19 22:41:05;;;;;;;5.93;1.38;;;8.50;99.90;;;;;;10429897;28;20049;-52
2020/12/19 22:46:25;;;;;;;4.03;1.75;;;8.50;99.90;;;;;;10430306;28;20452;-52
2020/12/19 22:51:47;;;;;;;10.20;3.85;;;8.50;99.90;;;;;;10422631;28;20460;-52
2020/12/19 22:57:08;;;;;;;5.57;2.33;;;8.40;99.90;;;;;;10423147;28;20570;-52
2020/12/19 23:02:33;;;;;;;4.43;2.38;;;8.50;99.90;;;;;;10421043;28;20520;-52
2020/12/19 23:07:54;;;;;;;3.92;1.80;;;8.50;99.90;;;;;;10409588;28;20037;-52
2020/12/19 23:13:19;;;;;;;3.67;1.65;;;8.50;99.90;;;;;;10428801;28;20072;-53
2020/12/19 23:18:40;;;;;;;6.78;1.52;;;8.50;99.90;;;;;;10417057;28;20045;-52
2020/12/19 23:24:01;;;;;;;3.63;1.50;;;8.50;99.90;;;;;;10409575;28;20779;-53
2020/12/19 23:29:22;;;;;;;8.02;2.88;;;8.50;99.90;;;;;;10419019;28;20028;-52
2020/12/19 23:34:43;;;;;;;5.95;2.45;;;8.40;99.90;;;;;;10424441;28;20045;-53
2020/12/19 23:40:08;;;;;;;5.10;1.67;;;8.40;99.90;;;;;;10429190;28;20522;-53
2020/12/19 23:45:29;;;;;;;4.90;1.48;;;8.40;99.90;;;;;;10423310;28;20064;-53
2020/12/19 23:50:50;;;;;;;3.78;2.08;;;8.40;99.90;;;;;;10420706;28;20085;-52
2020/12/19 23:56:19;;;;;;;6.13;1.83;;;8.40;99.90;;;;;;10426256;28;20066;-52
